Time;durP1;ratioP1;P1;durP2;ratioP2;P2;SDS_P1;SDS_P2;PMS_P1;PMS_P2;Temp;Humidity;BMP_temperature;BMP_pressure;BME280_temperature;BME280_humidity;BME280_pressure;Samples;Min_cycle;Max_cycle;Signal;HPM_P1;HPM_P2
2021/12/02 00:01:58;;;;;;;1999.90;999.90;;;1.80;99.90;;;;;;5056813;28;20063;-84
2021/12/02 00:04:23;;;;;;;1999.90;999.90;;;1.80;99.90;;;;;;5038851;28;20468;-81
2021/12/02 00:06:49;;;;;;;1999.90;999.90;;;1.80;99.90;;;;;;5038757;28;20108;-83
2021/12/02 00:09:16;;;;;;;1999.90;999.90;;;1.80;99.90;;;;;;5038830;28;20021;-79
2021/12/02 00:11:42;;;;;;;1999.90;999.90;;;1.90;99.90;;;;;;5039139;28;20033;-82
2021/12/02 00:14:12;;;;;;;1999.90;999.90;;;1.90;99.90;;;;;;5056957;28;20017;-80
2021/12/02 00:21:51;;;;;;;1999.90;999.90;;;1.90;99.90;;;;;;5036518;28;20496;-84
2021/12/02 00:24:19;;;;;;;1999.90;999.90;;;1.80;99.90;;;;;;5034817;28;20033;-82
2021/12/02 00:26:47;;;;;;;1999.90;999.90;;;1.90;99.90;;;;;;5034966;28;20025;-80
2021/12/02 00:29:16;;;;;;;1999.90;999.90;;;1.80;99.90;;;;;;5018559;28;20021;-80
2021/12/02 00:31:46;;;;;;;1999.90;999.90;;;1.80;99.90;;;;;;5036225;28;20064;-80
2021/12/02 00:34:12;;;;;;;1999.90;999.90;;;1.80;99.90;;;;;;5035138;28;20104;-82
2021/12/02 00:36:40;;;;;;;1999.90;999.90;;;1.80;99.90;;;;;;5035028;28;20477;-85
2021/12/02 00:39:12;;;;;;;1999.90;999.90;;;1.90;99.90;;;;;;5034625;28;20025;-82
2021/12/02 00:41:38;;;;;;;1999.90;999.90;;;1.80;99.90;;;;;;5035544;28;20024;-79
2021/12/02 00:44:05;;;;;;;1999.90;999.90;;;1.90;99.90;;;;;;5034395;28;20072;-84
2021/12/02 00:46:32;;;;;;;1999.90;999.90;;;1.90;99.90;;;;;;5034638;28;20081;-83
2021/12/02 00:49:02;;;;;;;1999.90;999.90;;;1.90;99.90;;;;;;5034755;28;20060;-82
2021/12/02 00:51:30;;;;;;;1999.90;999.90;;;1.90;99.90;;;;;;5018728;28;20381;-80
2021/12/02 00:54:00;;;;;;;1999.90;999.90;;;1.90;99.90;;;;;;5035767;28;20021;-80
2021/12/02 00:56:26;;;;;;;1999.90;999.90;;;1.90;99.90;;;;;;5034781;28;20112;-81
2021/12/02 00:58:53;;;;;;;1999.90;999.90;;;2.00;99.90;;;;;;5035871;28;20060;-83
2021/12/02 01:01:21;;;;;;;1999.90;999.90;;;2.00;99.90;;;;;;5018322;28;20040;-83
2021/12/02 01:03:50;;;;;;;1999.90;999.90;;;2.00;99.90;;;;;;5034516;28;20044;-83
2021/12/02 01:06:15;;;;;;;1999.90;999.90;;;2.00;99.90;;;;;;5033201;28;20484;-82
2021/12/02 01:08:41;;;;;;;1999.90;999.90;;;2.00;99.90;;;;;;5034330;28;20013;-81
2021/12/02 01:11:09;;;;;;;1999.90;999.90;;;2.00;99.90;;;;;;5033927;28;20025;-80
2021/12/02 01:13:35;;;;;;;1999.90;999.90;;;2.00;99.90;;;;;;5035751;28;20025;-81
2021/12/02 01:16:01;;;;;;;1999.90;999.90;;;2.00;99.90;;;;;;5033784;28;20041;-85
2021/12/02 01:18:27;;;;;;;1999.90;999.90;;;2.00;99.90;;;;;;5034424;28;20025;-80
2021/12/02 01:20:53;;;;;;;1999.90;999.90;;;1.90;99.90;;;;;;5033990;28;20013;-79
2021/12/02 01:23:21;;;;;;;1999.90;999.90;;;1.90;99.90;;;;;;5034413;28;20064;-80
2021/12/02 01:26:02;;;;;;;1999.90;999.90;;;1.90;99.90;;;;;;5033629;28;20420;-80
2021/12/02 01:28:29;;;;;;;1999.90;999.90;;;1.90;99.90;;;;;;5033903;28;20022;-77
2021/12/02 01:30:55;;;;;;;1999.90;999.90;;;1.80;99.90;;;;;;5035171;28;20025;-84
2021/12/02 01:33:23;;;;;;;1999.90;999.90;;;1.80;99.90;;;;;;5034471;28;20025;-84
2021/12/02 01:35:56;;;;;;;1999.90;999.90;;;1.80;99.90;;;;;;5035591;28;20025;-85
2021/12/02 01:38:24;;;;;;;1999.90;999.90;;;1.80;99.90;;;;;;5033868;28;20059;-86
2021/12/02 01:40:50;;;;;;;1999.90;999.90;;;1.80;99.90;;;;;;5033838;28;20051;-81
2021/12/02 01:43:19;;;;;;;1999.90;999.90;;;1.80;99.90;;;;;;5034022;28;20045;-83
2021/12/02 01:45:45;;;;;;;1999.90;999.90;;;1.90;99.90;;;;;;5033605;28;20025;-81
2021/12/02 01:48:15;;;;;;;1999.90;999.90;;;1.90;99.90;;;;;;5035160;28;20021;-79
2021/12/02 01:50:43;;;;;;;1999.90;999.90;;;1.90;99.90;;;;;;5034764;28;20018;-83
2021/12/02 01:53:15;;;;;;;1999.90;999.90;;;1.90;99.90;;;;;;5033592;28;20091;-83
2021/12/02 01:55:43;;;;;;;1999.90;999.90;;;1.80;99.90;;;;;;5033438;28;20465;-84
2021/12/02 01:58:15;;;;;;;1999.90;999.90;;;1.90;99.90;;;;;;5017452;28;20041;-81
2021/12/02 02:00:44;;;;;;;1999.90;999.90;;;1.80;99.90;;;;;;5033758;28;20017;-84
2021/12/02 02:03:12;;;;;;;1999.90;999.90;;;1.90;99.90;;;;;;5033985;28;20037;-83
2021/12/02 02:05:39;;;;;;;1999.90;999.90;;;1.80;99.90;;;;;;5034030;28;20048;-79
2021/12/02 02:08:17;;;;;;;1999.90;999.90;;;1.80;99.90;;;;;;5033825;28;20116;-81
2021/12/02 02:10:45;;;;;;;1999.90;999.90;;;1.90;99.90;;;;;;5035900;28;20052;-83
2021/12/02 02:13:12;;;;;;;1999.90;999.90;;;1.80;99.90;;;;;;5033667;28;20032;-85
2021/12/02 02:15:41;;;;;;;1999.90;999.90;;;2.00;99.90;;;;;;5034377;28;20036;-82
2021/12/02 02:18:12;;;;;;;1999.90;999.90;;;1.90;99.90;;;;;;5039183;28;20115;-83
2021/12/02 02:23:18;;;;;;;1999.90;999.90;;;2.00;99.90;;;;;;5058625;28;20137;-83
2021/12/02 02:25:45;;;;;;;1999.90;999.90;;;1.90;99.90;;;;;;5040765;28;20028;-81
2021/12/02 02:28:12;;;;;;;1999.90;999.90;;;2.00;99.90;;;;;;5040416;28;20392;-81
2021/12/02 02:30:38;;;;;;;1999.90;999.90;;;1.90;99.90;;;;;;5058735;28;20013;-84
2021/12/02 02:33:04;;;;;;;1999.90;999.90;;;1.90;99.90;;;;;;5040626;28;20029;-79
2021/12/02 02:35:31;;;;;;;1999.90;999.90;;;1.90;99.90;;;;;;5058221;28;20024;-82
2021/12/02 02:37:59;;;;;;;1999.90;999.90;;;2.00;99.90;;;;;;5041272;28;20025;-81
2021/12/02 02:40:25;;;;;;;1999.90;999.90;;;2.00;99.90;;;;;;5058611;28;20017;-82
2021/12/02 02:43:05;;;;;;;1999.90;999.90;;;2.00;99.90;;;;;;5041491;28;20039;-86
2021/12/02 02:45:30;;;;;;;1999.90;999.90;;;2.10;99.90;;;;;;5040341;28;20100;-84
2021/12/02 02:47:56;;;;;;;1999.90;999.90;;;2.00;99.90;;;;;;5058119;28;20076;-80
2021/12/02 02:50:22;;;;;;;1999.90;999.90;;;2.00;99.90;;;;;;5040366;28;20124;-85
2021/12/02 02:52:48;;;;;;;1999.90;999.90;;;1.90;99.90;;;;;;5040188;28;20460;-84
2021/12/02 02:55:23;;;;;;;1999.90;999.90;;;1.90;99.90;;;;;;5039904;28;20025;-81
2021/12/02 02:58:20;;;;;;;1999.90;999.90;;;1.90;99.90;;;;;;5039938;28;20025;-82
2021/12/02 03:00:39;;;;;;;1999.90;999.90;;;1.90;99.90;;;;;;5057745;28;20110;-81
2021/12/02 03:03:24;;;;;;;1999.90;999.90;;;2.00;99.90;;;;;;5039147;28;20045;-80
2021/12/02 03:08:37;;;;;;;1999.90;999.90;;;2.10;99.90;;;;;;5057303;28;20035;-83
2021/12/02 03:11:05;;;;;;;1999.90;999.90;;;2.10;99.90;;;;;;5057970;28;20013;-82
2021/12/02 03:13:47;;;;;;;1999.90;999.90;;;2.10;99.90;;;;;;5040138;28;20534;-81
2021/12/02 03:18:57;;;;;;;1999.90;999.90;;;2.10;99.90;;;;;;5058113;28;20036;-81
2021/12/02 03:21:24;;;;;;;1999.90;999.90;;;2.10;99.90;;;;;;5045303;28;20025;-81
2021/12/02 03:24:01;;;;;;;1999.90;999.90;;;2.10;99.90;;;;;;5060522;28;20045;-82
2021/12/02 03:26:29;;;;;;;1999.90;999.90;;;2.20;99.90;;;;;;5041328;28;20120;-79
2021/12/02 03:28:55;;;;;;;1999.90;999.90;;;2.10;99.90;;;;;;5038500;28;20021;-79
2021/12/02 03:31:22;;;;;;;1999.90;999.90;;;2.10;99.90;;;;;;5039005;28;20031;-79
2021/12/02 03:33:48;;;;;;;1999.90;999.90;;;2.10;99.90;;;;;;5039282;28;20025;-83
2021/12/02 03:36:15;;;;;;;1999.90;999.90;;;2.10;99.90;;;;;;5039257;28;20025;-80
2021/12/02 03:38:42;;;;;;;1999.90;999.90;;;2.20;99.90;;;;;;5022076;28;20025;-82
2021/12/02 03:41:08;;;;;;;1999.90;999.90;;;2.20;99.90;;;;;;5056487;28;20032;-84
2021/12/02 03:43:42;;;;;;;1999.90;999.90;;;2.10;99.90;;;;;;5039079;28;20037;-85
2021/12/02 03:46:10;;;;;;;1999.90;999.90;;;2.10;99.90;;;;;;5038308;28;20028;-83
2021/12/02 03:48:37;;;;;;;1999.90;999.90;;;2.10;99.90;;;;;;5056306;28;20025;-81
2021/12/02 03:51:07;;;;;;;1999.90;999.90;;;2.10;99.90;;;;;;5039716;28;20157;-80
2021/12/02 03:53:33;;;;;;;1999.90;999.90;;;2.10;99.90;;;;;;5039611;28;20021;-81
2021/12/02 03:56:01;;;;;;;1999.90;999.90;;;2.10;99.90;;;;;;5039458;28;20025;-79
2021/12/02 03:58:29;;;;;;;1999.90;999.90;;;2.20;99.90;;;;;;5039225;28;20025;-80
2021/12/02 04:00:56;;;;;;;1999.90;999.90;;;2.20;99.90;;;;;;5057013;28;20028;-77
2021/12/02 04:03:22;;;;;;;1999.90;999.90;;;2.20;99.90;;;;;;5022850;28;20131;-84
2021/12/02 04:05:48;;;;;;;1999.90;999.90;;;2.30;99.90;;;;;;5056646;28;20053;-82
2021/12/02 04:08:14;;;;;;;1999.90;999.90;;;2.30;99.90;;;;;;5039378;28;20618;-83
2021/12/02 04:10:41;;;;;;;1999.90;999.90;;;2.30;99.90;;;;;;5039515;28;20028;-82
2021/12/02 04:15:44;;;;;;;1999.90;999.90;;;2.40;99.90;;;;;;5056628;28;20029;-83
2021/12/02 04:18:10;;;;;;;1999.90;999.90;;;2.30;99.90;;;;;;5038515;28;20056;-83
2021/12/02 04:20:43;;;;;;;1999.90;999.90;;;2.30;99.90;;;;;;5056580;28;20411;-84
2021/12/02 04:23:08;;;;;;;1999.90;999.90;;;2.20;99.90;;;;;;5056239;28;20029;-85
2021/12/02 04:25:34;;;;;;;1999.90;999.90;;;2.20;99.90;;;;;;5038709;28;20032;-80
2021/12/02 04:28:00;;;;;;;1999.90;999.90;;;2.20;99.90;;;;;;5055966;28;20060;-83
2021/12/02 04:30:27;;;;;;;1999.90;999.90;;;2.10;99.90;;;;;;5038441;28;20380;-82
2021/12/02 04:32:53;;;;;;;1999.90;999.90;;;2.20;99.90;;;;;;5038157;28;20033;-84
2021/12/02 04:35:19;;;;;;;1999.90;999.90;;;2.20;99.90;;;;;;5037710;28;20062;-83
2021/12/02 04:37:48;;;;;;;1999.90;999.90;;;2.20;99.90;;;;;;5037829;28;20082;-84
2021/12/02 04:40:18;;;;;;;1999.90;999.90;;;2.30;99.90;;;;;;5021424;28;20021;-84
2021/12/02 04:42:44;;;;;;;1999.90;999.90;;;2.30;99.90;;;;;;5038055;28;20036;-82
2021/12/02 04:45:11;;;;;;;1999.90;999.90;;;2.30;99.90;;;;;;5038011;28;20025;-84
2021/12/02 04:47:37;;;;;;;1999.90;999.90;;;2.40;99.90;;;;;;5037871;28;20029;-80
2021/12/02 04:50:06;;;;;;;1999.90;999.90;;;2.40;99.90;;;;;;5037678;28;20025;-80
2021/12/02 04:52:32;;;;;;;1999.90;999.90;;;2.40;99.90;;;;;;5037499;28;20086;-82
2021/12/02 04:54:57;;;;;;;1999.90;999.90;;;2.40;99.90;;;;;;5055488;28;20033;-81
2021/12/02 04:57:23;;;;;;;1999.90;999.90;;;2.40;99.90;;;;;;5037731;28;20025;-85
2021/12/02 04:59:49;;;;;;;1999.90;999.90;;;2.40;99.90;;;;;;5055575;28;20035;-82
2021/12/02 05:02:14;;;;;;;1999.90;999.90;;;2.50;99.90;;;;;;5038199;28;20052;-83
2021/12/02 05:04:40;;;;;;;1999.90;999.90;;;2.40;99.90;;;;;;5055810;28;20033;-81
2021/12/02 05:07:06;;;;;;;1999.90;999.90;;;2.40;99.90;;;;;;5037717;28;20028;-81
2021/12/02 05:09:31;;;;;;;1999.90;999.90;;;2.40;99.90;;;;;;5055654;28;20119;-81
2021/12/02 05:11:57;;;;;;;1999.90;999.90;;;2.30;99.90;;;;;;5055787;28;20021;-84
2021/12/02 05:14:23;;;;;;;1999.90;999.90;;;2.40;99.90;;;;;;5038576;28;20093;-83
2021/12/02 05:16:48;;;;;;;1999.90;999.90;;;2.30;99.90;;;;;;5038348;28;20049;-85
2021/12/02 05:19:14;;;;;;;1999.90;999.90;;;2.40;99.90;;;;;;5037842;28;20116;-82
2021/12/02 05:21:40;;;;;;;1999.90;999.90;;;2.40;99.90;;;;;;5037588;28;20033;-82
2021/12/02 05:24:06;;;;;;;1999.90;999.90;;;2.30;99.90;;;;;;5054851;28;20493;-80
2021/12/02 05:26:32;;;;;;;1999.90;999.90;;;2.30;99.90;;;;;;5037739;28;20025;-79
2021/12/02 05:28:58;;;;;;;1999.90;999.90;;;2.10;99.90;;;;;;5037595;28;20464;-82
2021/12/02 05:31:24;;;;;;;1999.90;999.90;;;2.10;99.90;;;;;;5037318;28;20104;-80
2021/12/02 05:33:50;;;;;;;1999.90;999.90;;;2.20;99.90;;;;;;5037097;28;20043;-84
2021/12/02 05:36:16;;;;;;;1999.90;999.90;;;2.20;99.90;;;;;;5054617;28;20096;-81
2021/12/02 05:38:41;;;;;;;1999.90;999.90;;;2.20;99.90;;;;;;5054795;28;20468;-81
2021/12/02 05:41:07;;;;;;;1999.90;999.90;;;2.20;99.90;;;;;;5037704;28;20480;-80
2021/12/02 05:43:33;;;;;;;1999.90;999.90;;;2.20;99.90;;;;;;5036695;28;20065;-84
2021/12/02 05:45:59;;;;;;;1999.90;999.90;;;2.20;99.90;;;;;;5054596;28;20067;-81
2021/12/02 05:48:25;;;;;;;1999.90;999.90;;;2.20;99.90;;;;;;5036487;28;20029;-80
2021/12/02 05:50:51;;;;;;;1999.90;999.90;;;2.30;99.90;;;;;;5037140;28;20083;-80
2021/12/02 05:53:17;;;;;;;1999.90;999.90;;;2.40;99.90;;;;;;5022947;28;20056;-82
2021/12/02 05:55:44;;;;;;;1999.90;999.90;;;2.40;99.90;;;;;;5058080;28;20456;-80
2021/12/02 05:58:11;;;;;;;1999.90;999.90;;;2.50;99.90;;;;;;5042255;28;20056;-80
2021/12/02 06:00:38;;;;;;;1999.90;999.90;;;2.50;99.90;;;;;;5040930;28;20423;-83
2021/12/02 06:03:04;;;;;;;1999.90;999.90;;;2.50;99.90;;;;;;5040589;28;20033;-83
2021/12/02 06:05:30;;;;;;;1999.90;999.90;;;2.50;99.90;;;;;;5040209;28;20090;-79
2021/12/02 06:08:01;;;;;;;1999.90;999.90;;;2.60;99.90;;;;;;5040631;28;20029;-82
2021/12/02 06:10:27;;;;;;;1999.90;999.90;;;2.60;99.90;;;;;;5039995;28;20021;-80
2021/12/02 06:12:53;;;;;;;1999.90;999.90;;;2.60;99.90;;;;;;5057649;28;20074;-81
2021/12/02 06:15:19;;;;;;;1999.90;999.90;;;2.70;99.90;;;;;;5040112;28;20029;-84
2021/12/02 06:17:45;;;;;;;1999.90;999.90;;;2.50;99.90;;;;;;5040002;28;20365;-80
2021/12/02 06:20:13;;;;;;;1999.90;999.90;;;2.60;99.90;;;;;;5040852;28;20116;-81
2021/12/02 06:22:39;;;;;;;1999.90;999.90;;;2.60;99.90;;;;;;5044355;28;20032;-82
2021/12/02 06:27:41;;;;;;;1999.90;999.90;;;3.10;99.90;;;;;;5067148;28;20017;-83
2021/12/02 06:30:07;;;;;;;1999.90;999.90;;;3.10;99.90;;;;;;5040807;28;20055;-84
2021/12/02 06:32:33;;;;;;;1999.90;999.90;;;2.90;99.90;;;;;;5040567;28;20024;-81
2021/12/02 06:34:59;;;;;;;1999.90;999.90;;;2.90;99.90;;;;;;5039162;28;20025;-79
2021/12/02 06:37:25;;;;;;;1999.90;999.90;;;2.90;99.90;;;;;;5039761;28;20025;-82
2021/12/02 06:39:51;;;;;;;1999.90;999.90;;;2.90;99.90;;;;;;5039440;28;20125;-79
2021/12/02 06:42:18;;;;;;;1999.90;999.90;;;2.80;99.90;;;;;;5057352;28;20062;-79
2021/12/02 06:44:44;;;;;;;1999.90;999.90;;;2.90;99.90;;;;;;5056904;28;20032;-86
2021/12/02 06:47:09;;;;;;;1999.90;999.90;;;2.80;99.90;;;;;;5039257;28;20083;-81
2021/12/02 06:49:38;;;;;;;1999.90;999.90;;;2.90;99.90;;;;;;5039024;28;20039;-80
2021/12/02 06:52:09;;;;;;;1999.90;999.90;;;2.80;99.90;;;;;;5057192;28;20440;-84
2021/12/02 06:54:34;;;;;;;1999.90;999.90;;;2.80;99.90;;;;;;5039352;28;20025;-79
2021/12/02 06:57:00;;;;;;;1999.90;999.90;;;2.90;99.90;;;;;;5057335;28;20395;-81
2021/12/02 06:59:26;;;;;;;1999.90;999.90;;;2.80;99.90;;;;;;5039380;28;20029;-82
2021/12/02 07:01:51;;;;;;;1999.90;999.90;;;2.80;99.90;;;;;;5057677;28;20025;-84
2021/12/02 07:04:17;;;;;;;1999.90;999.90;;;2.80;99.90;;;;;;5038177;28;20037;-80
2021/12/02 07:06:44;;;;;;;1999.90;999.90;;;2.80;99.90;;;;;;5038428;28;20120;-79
2021/12/02 07:09:10;;;;;;;1999.90;999.90;;;2.80;99.90;;;;;;5038435;28;20021;-79
2021/12/02 07:11:35;;;;;;;1999.90;999.90;;;2.80;99.90;;;;;;5056769;28;20025;-82
2021/12/02 07:14:07;;;;;;;1999.90;999.90;;;2.80;99.90;;;;;;5056407;28;20019;-82
2021/12/02 07:16:33;;;;;;;1999.90;999.90;;;2.80;99.90;;;;;;5038840;28;20132;-82
2021/12/02 07:19:02;;;;;;;1999.90;999.90;;;2.80;99.90;;;;;;5039707;28;20060;-83
2021/12/02 07:21:28;;;;;;;1999.90;999.90;;;2.90;99.90;;;;;;5056569;28;20032;-82
2021/12/02 07:23:54;;;;;;;1999.90;999.90;;;2.90;99.90;;;;;;5022737;28;20041;-82
2021/12/02 07:26:19;;;;;;;1999.90;999.90;;;2.80;99.90;;;;;;5039276;28;20376;-83
2021/12/02 07:28:47;;;;;;;1999.90;999.90;;;2.70;99.90;;;;;;5040513;28;20052;-85
2021/12/02 07:31:13;;;;;;;1999.90;999.90;;;2.80;99.90;;;;;;5039413;28;20028;-82
2021/12/02 07:33:48;;;;;;;1999.90;999.90;;;2.80;99.90;;;;;;5038815;28;20684;-82
2021/12/02 07:36:15;;;;;;;1999.90;999.90;;;2.80;99.90;;;;;;5038558;28;20028;-84
2021/12/02 07:38:41;;;;;;;1999.90;999.90;;;2.90;99.90;;;;;;5038296;28;20021;-82
2021/12/02 07:41:07;;;;;;;1999.90;999.90;;;2.90;99.90;;;;;;5038273;28;20115;-84
2021/12/02 07:43:35;;;;;;;1999.90;999.90;;;2.90;99.90;;;;;;5037529;28;20036;-82
2021/12/02 07:46:02;;;;;;;1999.90;999.90;;;2.90;99.90;;;;;;5036937;28;20028;-82
2021/12/02 07:48:28;;;;;;;1999.90;999.90;;;2.90;99.90;;;;;;5039362;28;20025;-84
2021/12/02 07:51:08;;;;;;;1999.90;999.90;;;2.90;99.90;;;;;;5043979;28;20021;-86
2021/12/02 07:53:35;;;;;;;1999.90;999.90;;;2.90;99.90;;;;;;5062361;28;20052;-83
2021/12/02 07:56:03;;;;;;;1999.90;999.90;;;3.00;99.90;;;;;;5040351;28;20024;-81
2021/12/02 07:58:29;;;;;;;1999.90;999.90;;;3.00;99.90;;;;;;5038045;28;20037;-83
2021/12/02 08:00:59;;;;;;;1999.90;999.90;;;3.00;99.90;;;;;;5038082;28;20098;-83
2021/12/02 08:03:26;;;;;;;1999.90;999.90;;;3.00;99.90;;;;;;5038658;28;20104;-86
2021/12/02 08:05:52;;;;;;;1999.90;999.90;;;3.00;99.90;;;;;;5038366;28;20119;-86
2021/12/02 08:08:18;;;;;;;1999.90;999.90;;;3.00;99.90;;;;;;5038406;28;20037;-82
2021/12/02 08:10:45;;;;;;;1999.90;999.90;;;3.10;99.90;;;;;;5038789;28;20083;-85
2021/12/02 08:13:13;;;;;;;1999.90;999.90;;;3.10;99.90;;;;;;5038019;28;20385;-82
2021/12/02 08:15:41;;;;;;;1999.90;999.90;;;3.10;99.90;;;;;;5038357;28;20021;-83
2021/12/02 08:18:07;;;;;;;1999.90;999.90;;;3.10;99.90;;;;;;5038302;28;20400;-82
2021/12/02 08:20:34;;;;;;;1999.90;999.90;;;3.10;99.90;;;;;;5037839;28;20025;-83
2021/12/02 08:23:01;;;;;;;1999.90;999.90;;;4.10;99.90;;;;;;5037973;28;20053;-85
2021/12/02 08:25:29;;;;;;;1999.90;999.90;;;4.00;99.90;;;;;;5037930;28;20494;-84
2021/12/02 08:27:59;;;;;;;1999.90;999.90;;;3.70;99.90;;;;;;5037748;28;20041;-87
2021/12/02 08:30:26;;;;;;;1999.90;999.90;;;3.70;99.90;;;;;;5037449;28;20033;-85
2021/12/02 08:32:53;;;;;;;1999.90;999.90;;;3.60;99.90;;;;;;5036712;28;20136;-82
2021/12/02 08:35:19;;;;;;;1999.90;999.90;;;3.60;99.90;;;;;;5037121;28;20029;-83
2021/12/02 08:37:48;;;;;;;1999.90;999.90;;;3.70;99.90;;;;;;5037610;28;20086;-84
2021/12/02 08:40:19;;;;;;;1999.90;999.90;;;3.60;99.90;;;;;;5037475;28;20028;-81
2021/12/02 08:42:46;;;;;;;1999.90;999.90;;;3.50;99.90;;;;;;5037650;28;20124;-84
2021/12/02 08:45:12;;;;;;;1999.90;999.90;;;3.40;99.90;;;;;;5036914;28;20017;-82
2021/12/02 08:47:44;;;;;;;1999.90;999.90;;;3.50;99.90;;;;;;5036915;28;20021;-83
2021/12/02 08:50:17;;;;;;;1999.90;999.90;;;3.40;99.90;;;;;;5037170;28;20107;-85
2021/12/02 08:52:45;;;;;;;1999.90;999.90;;;3.40;99.90;;;;;;5036857;28;20491;-84
2021/12/02 08:55:11;;;;;;;1999.90;999.90;;;3.50;99.90;;;;;;5037153;28;20048;-85
2021/12/02 08:57:37;;;;;;;1999.90;999.90;;;3.40;99.90;;;;;;5037069;28;20025;-86
2021/12/02 09:00:06;;;;;;;1999.90;999.90;;;3.50;99.90;;;;;;5036961;28;20036;-85
2021/12/02 09:02:32;;;;;;;1999.90;999.90;;;3.50;99.90;;;;;;5036952;28;20459;-81
2021/12/02 09:04:58;;;;;;;1999.90;999.90;;;3.40;99.90;;;;;;5038225;28;20056;-84
2021/12/02 09:07:24;;;;;;;1999.90;999.90;;;4.10;99.90;;;;;;5021702;28;20025;-81
2021/12/02 09:09:50;;;;;;;1999.90;999.90;;;3.90;99.90;;;;;;5039845;28;20492;-80
2021/12/02 09:12:16;;;;;;;1999.90;999.90;;;3.80;99.90;;;;;;5022270;28;20029;-79
2021/12/02 09:14:41;;;;;;;1999.90;999.90;;;3.80;99.90;;;;;;5036666;28;20065;-84
2021/12/02 09:17:07;;;;;;;1999.90;999.90;;;3.70;99.90;;;;;;5036575;28;20052;-81
2021/12/02 09:19:33;;;;;;;1999.90;999.90;;;3.80;99.90;;;;;;5036285;28;20036;-79
2021/12/02 09:21:59;;;;;;;1999.90;999.90;;;3.80;99.90;;;;;;5036972;28;20028;-86
2021/12/02 09:24:24;;;;;;;1999.90;999.90;;;3.80;99.90;;;;;;5036709;28;20037;-78
2021/12/02 09:26:51;;;;;;;1999.90;999.90;;;3.70;99.90;;;;;;5035437;28;20068;-86
2021/12/02 09:29:19;;;;;;;1999.90;999.90;;;3.80;99.90;;;;;;5036037;28;20017;-85
2021/12/02 09:31:46;;;;;;;1999.90;999.90;;;3.80;99.90;;;;;;5035979;28;20032;-86
2021/12/02 09:34:12;;;;;;;1999.90;999.90;;;3.80;99.90;;;;;;5036172;28;20024;-79
2021/12/02 09:36:38;;;;;;;1999.90;999.90;;;3.90;99.90;;;;;;5035865;28;20119;-85
2021/12/02 09:39:06;;;;;;;1999.90;999.90;;;3.80;99.90;;;;;;5035816;28;20404;-80
2021/12/02 09:41:33;;;;;;;1999.90;999.90;;;3.80;99.90;;;;;;5035599;28;20036;-83
2021/12/02 09:43:59;;;;;;;1999.90;999.90;;;3.80;99.90;;;;;;5036131;28;20132;-82
2021/12/02 09:46:25;;;;;;;1999.90;999.90;;;3.80;99.90;;;;;;5053659;28;20060;-85
2021/12/02 09:48:53;;;;;;;1999.90;999.90;;;3.80;99.90;;;;;;5035999;28;20040;-83
2021/12/02 09:51:29;;;;;;;1999.90;999.90;;;3.90;99.90;;;;;;5036113;28;20074;-85
2021/12/02 09:53:58;;;;;;;1999.90;999.90;;;3.90;99.90;;;;;;5035848;28;20033;-82
2021/12/02 09:56:30;;;;;;;1999.90;999.90;;;4.00;99.90;;;;;;5035566;28;20026;-81
2021/12/02 09:59:04;;;;;;;1999.90;999.90;;;4.10;99.90;;;;;;5035655;28;20025;-82
2021/12/02 10:02:04;;;;;;;1999.90;999.90;;;4.20;99.90;;;;;;5036046;28;20075;-84
2021/12/02 10:04:22;;;;;;;1999.90;999.90;;;4.10;99.90;;;;;;5049295;28;20040;-83
2021/12/02 10:06:49;;;;;;;1999.90;999.90;;;4.10;99.90;;;;;;5035796;28;20025;-83
2021/12/02 10:09:39;;;;;;;1999.90;999.90;;;4.10;99.90;;;;;;5035845;28;20028;-81
2021/12/02 10:12:14;;;;;;;1999.90;999.90;;;4.10;99.90;;;;;;5035761;28;20131;-84
2021/12/02 10:14:44;;;;;;;1999.90;999.90;;;4.10;99.90;;;;;;5035824;28;20025;-82
2021/12/02 10:20:16;;;;;;;1999.90;999.90;;;4.60;99.90;;;;;;5053546;28;20107;-82
2021/12/02 10:22:46;;;;;;;1999.90;999.90;;;4.60;99.90;;;;;;5035650;28;20033;-83
2021/12/02 10:25:27;;;;;;;1999.90;999.90;;;4.60;99.90;;;;;;5035933;28;20041;-87
2021/12/02 10:28:02;;;;;;;1999.90;999.90;;;4.50;99.90;;;;;;5036352;28;20035;-84
2021/12/02 10:30:28;;;;;;;1999.90;999.90;;;4.40;99.90;;;;;;5036791;28;20037;-83
2021/12/02 10:32:53;;;;;;;1999.90;999.90;;;4.30;99.90;;;;;;5035716;28;20043;-88
2021/12/02 10:35:43;;;;;;;1999.90;999.90;;;4.40;99.90;;;;;;5036665;28;20027;-84
2021/12/02 10:38:42;;;;;;;1999.90;999.90;;;4.30;99.90;;;;;;5039711;28;20033;-86
2021/12/02 10:41:11;;;;;;;1999.90;999.90;;;4.30;99.90;;;;;;5045108;28;20017;-85
2021/12/02 10:44:17;;;;;;;1999.90;999.90;;;4.40;99.90;;;;;;5039744;28;20135;-85
2021/12/02 10:47:03;;;;;;;1999.90;999.90;;;4.40;99.90;;;;;;5039339;28;20021;-83
2021/12/02 10:49:38;;;;;;;1999.90;999.90;;;4.30;99.90;;;;;;5039804;28;20567;-83
2021/12/02 10:52:06;;;;;;;;;;;4.40;99.90;;;;;;5040050;28;20529;-83
2021/12/02 10:54:36;;;;;;;1999.90;999.90;;;4.40;99.90;;;;;;5039166;28;19908;-82
2021/12/02 10:57:18;;;;;;;1999.90;999.90;;;4.40;99.90;;;;;;5057131;28;20025;-87
2021/12/02 10:59:51;;;;;;;1999.90;999.90;;;4.30;99.90;;;;;;5039070;28;20052;-84
2021/12/02 11:02:29;;;;;;;1999.90;999.90;;;4.30;99.90;;;;;;5039441;28;20059;-85
2021/12/02 11:05:06;;;;;;;1999.90;999.90;;;4.30;99.90;;;;;;5039009;28;20033;-84
2021/12/02 11:07:34;;;;;;;1999.90;999.90;;;4.30;99.90;;;;;;5039231;28;20029;-86
2021/12/02 11:10:08;;;;;;;1999.90;999.90;;;4.30;99.90;;;;;;5039290;28;20060;-85
2021/12/02 11:12:37;;;;;;;1999.90;999.90;;;4.40;99.90;;;;;;5039197;28;20050;-82
2021/12/02 11:15:16;;;;;;;1999.90;999.90;;;4.40;99.90;;;;;;5039010;28;20025;-84
2021/12/02 11:17:49;;;;;;;1999.90;999.90;;;4.40;99.90;;;;;;5038807;28;20049;-84
2021/12/02 11:20:23;;;;;;;1999.90;999.90;;;4.40;99.90;;;;;;5039099;28;20482;-85
2021/12/02 11:22:58;;;;;;;1999.90;999.90;;;4.40;99.90;;;;;;5039232;28;20064;-84
2021/12/02 11:25:24;;;;;;;1999.90;999.90;;;4.40;99.90;;;;;;5038829;28;20033;-83
2021/12/02 11:27:51;;;;;;;1999.90;999.90;;;4.40;99.90;;;;;;5039017;28;20022;-83
2021/12/02 11:30:21;;;;;;;1999.90;999.90;;;4.40;99.90;;;;;;5056537;28;20152;-84
2021/12/02 11:32:57;;;;;;;1999.90;999.90;;;4.50;99.90;;;;;;5038907;28;20385;-83
2021/12/02 11:35:27;;;;;;;1999.90;999.90;;;4.50;99.90;;;;;;5038913;28;20484;-84
2021/12/02 11:38:03;;;;;;;1999.90;999.90;;;4.60;99.90;;;;;;5038883;28;20060;-83
2021/12/02 11:40:32;;;;;;;1999.90;999.90;;;4.60;99.90;;;;;;5056250;28;20032;-82
2021/12/02 11:42:59;;;;;;;1999.90;999.90;;;4.60;99.90;;;;;;5038425;28;20036;-86
2021/12/02 11:45:28;;;;;;;1999.90;999.90;;;4.70;99.90;;;;;;5055821;28;20032;-87
2021/12/02 11:47:55;;;;;;;1999.90;999.90;;;4.70;99.90;;;;;;5038417;28;20080;-82
2021/12/02 11:50:24;;;;;;;1999.90;999.90;;;4.70;99.90;;;;;;5055134;28;20033;-83
2021/12/02 11:52:50;;;;;;;1999.90;999.90;;;4.70;99.90;;;;;;5037838;28;20032;-84
2021/12/02 11:55:20;;;;;;;1999.90;999.90;;;4.80;99.90;;;;;;5037808;28;20024;-86
2021/12/02 11:57:48;;;;;;;1999.90;999.90;;;4.70;99.90;;;;;;5039201;28;20032;-85
2021/12/02 12:00:17;;;;;;;1999.90;999.90;;;4.80;99.90;;;;;;5039465;28;20049;-85
2021/12/02 12:02:53;;;;;;;1999.90;999.90;;;4.80;99.90;;;;;;5038803;28;20393;-84
2021/12/02 12:05:42;;;;;;;1999.90;999.90;;;4.80;99.90;;;;;;5037957;28;20021;-85
2021/12/02 12:08:08;;;;;;;1999.90;999.90;;;4.80;99.90;;;;;;5037744;28;20144;-85
2021/12/02 12:10:38;;;;;;;1999.90;999.90;;;4.80;99.90;;;;;;5037855;28;20088;-83
2021/12/02 12:13:30;;;;;;;1999.90;999.90;;;4.80;99.90;;;;;;5037664;28;20017;-83
2021/12/02 12:16:00;;;;;;;1999.90;999.90;;;4.90;99.90;;;;;;5033715;28;20552;-86
2021/12/02 12:18:27;;;;;;;1999.90;999.90;;;4.90;99.90;;;;;;5037665;28;20025;-84
2021/12/02 12:20:53;;;;;;;1999.90;999.90;;;4.90;99.90;;;;;;5037680;28;20099;-83
2021/12/02 12:23:28;;;;;;;1999.90;999.90;;;4.90;99.90;;;;;;5046091;28;20033;-87
2021/12/02 12:26:32;;;;;;;1999.90;999.90;;;4.90;99.90;;;;;;5052908;28;20017;-84
2021/12/02 12:29:07;;;;;;;1999.90;999.90;;;4.90;99.90;;;;;;5042791;28;20495;-85
2021/12/02 12:34:28;;;;;;;1999.90;999.90;;;4.90;99.90;;;;;;5055351;28;20025;-86
2021/12/02 12:36:55;;;;;;;1999.90;999.90;;;4.90;99.90;;;;;;5037172;28;20032;-85
2021/12/02 12:39:24;;;;;;;1999.90;999.90;;;4.90;99.90;;;;;;5037483;28;20032;-83
2021/12/02 12:42:12;;;;;;;1999.90;999.90;;;5.00;99.90;;;;;;5037293;28;20028;-83